Time;durP1;ratioP1;P1;durP2;ratioP2;P2;SDS_P1;SDS_P2;PMS_P1;PMS_P2;Temp;Humidity;BMP_temperature;BMP_pressure;BME280_temperature;BME280_humidity;BME280_pressure;Samples;Min_cycle;Max_cycle;Signal;HPM_P1;HPM_P2
2023/03/28 00:00:18;;;;;;;33.00;27.45;;;28.40;80.00;;;;;;1836672;77;21219;-78
2023/03/28 00:02:49;;;;;;;32.65;27.90;;;28.30;79.70;;;;;;1831270;77;21141;-78
2023/03/28 00:08:13;;;;;;;33.88;26.40;;;28.30;80.70;;;;;;1783997;80;21454;-77
2023/03/28 00:10:45;;;;;;;33.10;25.85;;;28.30;81.10;;;;;;1791812;78;21162;-77
2023/03/28 00:13:18;;;;;;;35.85;26.40;;;28.30;81.10;;;;;;1777655;79;21126;-78
2023/03/28 00:15:51;;;;;;;34.53;25.97;;;28.30;81.00;;;;;;1794383;78;21154;-78
2023/03/28 00:18:22;;;;;;;33.63;26.62;;;28.30;82.30;;;;;;1782446;79;21182;-78
2023/03/28 00:20:53;;;;;;;31.33;25.40;;;28.30;81.70;;;;;;1770206;79;21126;-77
2023/03/28 00:23:26;;;;;;;29.10;24.15;;;28.30;81.40;;;;;;1788254;79;21152;-78
2023/03/28 00:25:57;;;;;;;37.42;24.82;;;28.30;81.40;;;;;;1793649;79;21174;-78
2023/03/28 00:28:29;;;;;;;28.17;24.15;;;28.30;81.40;;;;;;1769277;80;21126;-78
2023/03/28 00:31:05;;;;;;;30.10;24.18;;;28.30;81.70;;;;;;1772983;80;21928;-77
2023/03/28 00:33:37;;;;;;;33.13;27.73;;;28.30;81.90;;;;;;1721537;82;21288;-79
2023/03/28 00:36:17;;;;;;;32.48;24.20;;;28.30;81.90;;;;;;1728016;81;21324;-76
2023/03/28 00:38:42;;;;;;;29.80;24.63;;;28.40;80.60;;;;;;1757951;80;21524;-78
2023/03/28 00:41:14;;;;;;;29.48;23.87;;;28.40;80.70;;;;;;1717043;82;21617;-80
2023/03/28 00:43:47;;;;;;;34.58;26.12;;;28.50;80.90;;;;;;1715945;82;21508;-80
2023/03/28 00:46:30;;;;;;;25.55;22.20;;;28.40;81.20;;;;;;1780599;80;21271;-78
2023/03/28 00:49:07;;;;;;;28.30;23.18;;;28.50;81.20;;;;;;1727021;82;21435;-78
2023/03/28 00:51:40;;;;;;;31.70;24.20;;;28.50;81.40;;;;;;1730428;81;21983;-78
2023/03/28 00:54:14;;;;;;;29.55;22.95;;;28.50;81.40;;;;;;1794299;79;21138;-79
2023/03/28 00:56:47;;;;;;;30.60;23.50;;;28.40;81.50;;;;;;1791078;79;21545;-84
2023/03/28 00:59:22;;;;;;;219.03;43.15;;;28.50;81.50;;;;;;1786770;79;21275;-75
2023/03/28 01:01:55;;;;;;;27.22;22.58;;;28.50;81.70;;;;;;1783798;79;21256;-76
2023/03/28 01:04:29;;;;;;;29.32;23.57;;;28.40;81.90;;;;;;1775237;80;21857;-76
2023/03/28 01:07:00;;;;;;;32.98;22.42;;;28.50;82.00;;;;;;1789199;78;21150;-76
2023/03/28 01:09:32;;;;;;;29.00;22.73;;;28.50;81.80;;;;;;1788275;79;21276;-76
2023/03/28 01:12:04;;;;;;;30.15;23.87;;;28.50;81.90;;;;;;1792421;79;21684;-76
2023/03/28 01:14:38;;;;;;;28.02;22.55;;;28.50;81.80;;;;;;1785778;79;21190;-76
2023/03/28 01:17:10;;;;;;;30.92;25.85;;;28.50;81.80;;;;;;1792128;79;21153;-77
2023/03/28 01:19:58;;;;;;;26.52;22.35;;;28.60;81.60;;;;;;1788987;79;21131;-74
2023/03/28 01:22:51;;;;;;;28.92;23.00;;;28.60;81.50;;;;;;1786225;79;21107;-74
2023/03/28 01:25:42;;;;;;;29.07;22.73;;;28.70;80.70;;;;;;1782053;79;21672;-74
2023/03/28 01:28:43;;;;;;;32.50;22.98;;;28.80;80.40;;;;;;1786013;79;21189;-74
2023/03/28 01:31:31;;;;;;;29.50;22.32;;;28.90;80.90;;;;;;1779032;79;21219;-76
2023/03/28 01:34:14;;;;;;;29.20;22.75;;;28.90;81.00;;;;;;1775253;80;21262;-75
2023/03/28 01:36:58;;;;;;;27.27;23.35;;;29.10;80.60;;;;;;1765441;79;21313;-74
2023/03/28 01:39:41;;;;;;;33.92;23.77;;;29.10;79.90;;;;;;1787660;79;21278;-75
2023/03/28 01:42:34;;;;;;;25.00;22.32;;;29.10;79.90;;;;;;1786436;79;21891;-74
2023/03/28 01:45:17;;;;;;;25.80;21.82;;;29.10;80.00;;;;;;1785623;78;21141;-74
2023/03/28 01:47:54;;;;;;;29.27;21.97;;;29.10;80.10;;;;;;1782337;79;21260;-74
2023/03/28 01:50:28;;;;;;;27.15;22.30;;;29.10;80.30;;;;;;1781265;80;21230;-75
2023/03/28 01:53:13;;;;;;;29.20;22.35;;;29.20;80.30;;;;;;1786222;79;21657;-74
2023/03/28 01:55:56;;;;;;;28.40;23.00;;;29.30;80.00;;;;;;1783390;78;21644;-74
2023/03/28 01:58:48;;;;;;;32.73;22.87;;;29.40;79.50;;;;;;1784470;79;21918;-75
2023/03/28 02:01:35;;;;;;;26.23;22.73;;;29.40;79.20;;;;;;1784202;79;21575;-74
2023/03/28 02:04:06;;;;;;;27.07;20.95;;;29.50;79.00;;;;;;1779778;79;21218;-74
2023/03/28 02:06:41;;;;;;;31.60;22.37;;;29.50;78.50;;;;;;1782042;79;21490;-75
2023/03/28 02:09:14;;;;;;;28.98;21.82;;;29.60;78.50;;;;;;1789154;78;21114;-76
2023/03/28 02:11:48;;;;;;;26.52;22.27;;;29.70;79.00;;;;;;1789679;79;21291;-75
2023/03/28 02:14:22;;;;;;;26.57;22.13;;;29.70;78.40;;;;;;1788129;80;21307;-75
2023/03/28 02:16:56;;;;;;;26.33;22.25;;;29.80;78.30;;;;;;1788443;78;21417;-76
2023/03/28 02:19:29;;;;;;;26.37;22.32;;;29.80;78.50;;;;;;1790978;78;21229;-74
2023/03/28 02:22:09;;;;;;;27.52;22.90;;;29.80;78.30;;;;;;1792166;78;21209;-75
2023/03/28 02:24:40;;;;;;;26.70;21.68;;;29.90;78.30;;;;;;1789373;78;21504;-75
2023/03/28 02:27:11;;;;;;;27.20;22.17;;;29.90;78.30;;;;;;1789584;78;21720;-75
2023/03/28 02:29:43;;;;;;;31.25;22.10;;;30.00;78.00;;;;;;1795368;80;21138;-75
2023/03/28 02:32:15;;;;;;;28.47;22.22;;;30.00;77.70;;;;;;1794512;78;21217;-75
2023/03/28 02:34:51;;;;;;;25.37;21.45;;;30.00;77.60;;;;;;1794035;78;21158;-73
2023/03/28 02:37:49;;;;;;;25.80;21.40;;;30.00;77.50;;;;;;1790820;79;21150;-75
2023/03/28 02:40:34;;;;;;;29.07;21.77;;;30.00;77.40;;;;;;1807924;78;21083;-76
2023/03/28 02:43:29;;;;;;;26.70;20.23;;;30.00;77.30;;;;;;1729759;82;21137;-74
2023/03/28 02:46:21;;;;;;;28.00;23.07;;;30.00;77.60;;;;;;1785810;79;21281;-74
2023/03/28 02:48:57;;;;;;;34.65;26.35;;;30.00;77.60;;;;;;1791619;78;21599;-77
2023/03/28 02:51:40;;;;;;;27.85;22.27;;;30.00;77.80;;;;;;1796137;78;21240;-73
2023/03/28 02:54:29;;;;;;;25.08;21.15;;;30.00;78.00;;;;;;1784348;79;21177;-75
2023/03/28 02:57:23;;;;;;;29.80;21.85;;;30.00;78.20;;;;;;1798180;78;21138;-74
2023/03/28 03:00:03;;;;;;;27.50;22.30;;;30.10;77.90;;;;;;1799708;78;21220;-74
2023/03/28 03:02:32;;;;;;;26.82;22.27;;;30.10;77.90;;;;;;1798566;78;21502;-75
2023/03/28 03:05:04;;;;;;;25.68;22.52;;;30.10;77.20;;;;;;1760796;80;21723;-74
2023/03/28 03:07:41;;;;;;;27.95;21.95;;;30.10;77.50;;;;;;1796357;78;21149;-74
2023/03/28 03:10:11;;;;;;;30.68;22.05;;;30.10;77.50;;;;;;1792541;79;21125;-75
2023/03/28 03:12:43;;;;;;;28.47;22.60;;;30.10;77.90;;;;;;1784426;79;21263;-74
2023/03/28 03:15:18;;;;;;;31.17;22.02;;;30.20;77.90;;;;;;1790381;78;21264;-77
2023/03/28 03:17:49;;;;;;;25.72;21.85;;;30.30;77.10;;;;;;1782540;79;21483;-76
2023/03/28 03:20:21;;;;;;;25.08;22.32;;;30.50;76.90;;;;;;1781454;79;21206;-74
2023/03/28 03:22:54;;;;;;;33.65;22.55;;;30.60;76.30;;;;;;1786531;79;21543;-74
2023/03/28 03:25:25;;;;;;;25.45;21.02;;;30.60;76.00;;;;;;1792221;79;21151;-75
2023/03/28 03:27:57;;;;;;;29.15;22.75;;;30.80;76.00;;;;;;1790955;79;21249;-75
2023/03/28 03:30:28;;;;;;;32.65;21.75;;;30.90;75.60;;;;;;1795510;78;21146;-75
2023/03/28 03:33:04;;;;;;;27.87;21.68;;;31.00;75.20;;;;;;1797519;79;21158;-73
2023/03/28 03:35:44;;;;;;;27.32;21.85;;;31.10;74.80;;;;;;1789569;79;21179;-76
2023/03/28 03:38:13;;;;;;;;;;;31.20;74.40;;;;;;1794119;78;21611;-76
2023/03/28 03:40:45;;;;;;;29.90;22.45;;;31.30;74.40;;;;;;1788533;79;20204;-75
2023/03/28 03:43:16;;;;;;;29.82;21.68;;;31.40;74.20;;;;;;1795708;79;21142;-73
2023/03/28 03:45:47;;;;;;;32.65;22.25;;;31.40;73.80;;;;;;1797071;79;21421;-75
2023/03/28 03:48:20;;;;;;;30.65;21.90;;;31.50;74.00;;;;;;1777327;79;21435;-74
2023/03/28 03:50:51;;;;;;;24.57;21.82;;;31.60;73.70;;;;;;1790765;79;21344;-75
2023/03/28 03:53:22;;;;;;;32.85;24.47;;;31.80;73.00;;;;;;1796448;79;21126;-76
2023/03/28 03:55:56;;;;;;;28.15;22.95;;;31.90;72.70;;;;;;1790937;79;21250;-75
2023/03/28 03:58:27;;;;;;;25.50;22.48;;;32.10;72.10;;;;;;1786792;79;21131;-75
2023/03/28 04:00:59;;;;;;;26.12;22.13;;;32.20;71.70;;;;;;1791991;79;21252;-74
2023/03/28 04:03:30;;;;;;;27.75;23.65;;;32.30;71.50;;;;;;1791839;79;21409;-73
2023/03/28 04:06:04;;;;;;;30.20;24.20;;;32.40;71.20;;;;;;1780548;78;21571;-74
2023/03/28 04:08:34;;;;;;;29.48;24.00;;;32.50;71.30;;;;;;1796431;77;21205;-74
2023/03/28 04:11:08;;;;;;;27.40;22.82;;;32.50;70.70;;;;;;1792237;79;21951;-75
2023/03/28 04:13:38;;;;;;;29.65;23.22;;;32.70;71.00;;;;;;1793101;78;21142;-75
2023/03/28 04:16:12;;;;;;;31.48;23.10;;;32.70;70.60;;;;;;1785716;78;21210;-73
2023/03/28 04:18:49;;;;;;;27.85;22.40;;;32.80;69.80;;;;;;1788098;79;21948;-73
2023/03/28 04:21:17;;;;;;;27.42;22.95;;;32.80;69.70;;;;;;1780024;78;21147;-77
2023/03/28 04:23:49;;;;;;;31.37;22.98;;;32.80;69.70;;;;;;1761313;80;21162;-76
2023/03/28 04:26:24;;;;;;;27.73;22.25;;;33.00;69.80;;;;;;1777111;79;21523;-75
2023/03/28 04:28:54;;;;;;;29.18;23.50;;;33.00;69.00;;;;;;1784966;79;21122;-74
2023/03/28 04:31:28;;;;;;;28.27;22.27;;;33.10;68.50;;;;;;1783118;79;21669;-74
2023/03/28 04:33:59;;;;;;;31.52;23.22;;;33.10;68.40;;;;;;1776006;79;21398;-75
2023/03/28 04:36:31;;;;;;;26.80;22.75;;;33.10;67.90;;;;;;1786151;79;21743;-74
2023/03/28 04:39:02;;;;;;;25.55;22.77;;;33.20;68.40;;;;;;1774661;79;21179;-75
2023/03/28 04:41:33;;;;;;;28.95;22.80;;;33.20;67.80;;;;;;1754783;80;21281;-75
2023/03/28 04:44:05;;;;;;;30.85;23.27;;;33.40;67.60;;;;;;1777555;79;21221;-75
2023/03/28 04:46:36;;;;;;;32.15;22.93;;;33.50;66.40;;;;;;1780249;80;21170;-74
2023/03/28 04:49:07;;;;;;;30.72;22.75;;;33.70;66.20;;;;;;1780115;80;21135;-76
2023/03/28 04:51:39;;;;;;;27.98;22.55;;;33.80;65.50;;;;;;1776073;80;21262;-75
2023/03/28 04:54:10;;;;;;;34.33;22.80;;;33.90;64.90;;;;;;1775853;80;21564;-75
2023/03/28 04:56:44;;;;;;;32.33;23.55;;;34.10;64.90;;;;;;1749228;80;21190;-75
2023/03/28 04:59:14;;;;;;;28.15;21.87;;;34.20;64.70;;;;;;1774618;80;21187;-74
2023/03/28 05:01:49;;;;;;;25.57;22.10;;;34.30;65.10;;;;;;1775085;80;21162;-75
2023/03/28 05:04:23;;;;;;;30.72;22.02;;;34.30;64.70;;;;;;1777803;79;21158;-75
2023/03/28 05:06:54;;;;;;;24.72;21.85;;;34.20;64.60;;;;;;1775888;79;21159;-75
2023/03/28 05:09:25;;;;;;;27.37;22.02;;;34.20;64.50;;;;;;1773641;79;21147;-75
2023/03/28 05:12:02;;;;;;;30.80;23.45;;;34.20;64.20;;;;;;1778520;80;21088;-75
2023/03/28 05:14:33;;;;;;;28.47;24.52;;;34.20;63.80;;;;;;1775780;80;21170;-76
2023/03/28 05:17:05;;;;;;;25.68;22.85;;;34.20;63.90;;;;;;1776537;80;21170;-75
2023/03/28 05:19:36;;;;;;;28.70;23.27;;;34.20;63.70;;;;;;1774932;80;21095;-75
2023/03/28 05:22:07;;;;;;;26.12;22.85;;;34.20;64.00;;;;;;1778504;80;21859;-75
2023/03/28 05:24:39;;;;;;;30.40;23.73;;;34.20;64.00;;;;;;1780786;80;21071;-78
2023/03/28 05:27:11;;;;;;;29.98;23.35;;;34.10;64.10;;;;;;1779351;80;21155;-75
2023/03/28 05:29:49;;;;;;;25.75;22.27;;;34.10;64.50;;;;;;1799404;80;21098;-76
2023/03/28 05:32:20;;;;;;;25.90;23.10;;;34.10;64.50;;;;;;1773641;80;21301;-75
2023/03/28 05:34:52;;;;;;;25.45;22.32;;;34.30;63.70;;;;;;1777288;80;21142;-77
2023/03/28 05:37:23;;;;;;;29.85;21.80;;;34.40;64.10;;;;;;1781452;79;21198;-78
2023/03/28 05:39:56;;;;;;;36.15;21.90;;;34.50;63.80;;;;;;1782002;80;21130;-74
2023/03/28 05:42:27;;;;;;;28.67;21.35;;;34.60;63.90;;;;;;1782945;79;21899;-76
2023/03/28 05:44:58;;;;;;;28.38;22.87;;;34.70;63.00;;;;;;1754288;80;21193;-76
2023/03/28 05:47:30;;;;;;;25.57;22.65;;;34.80;62.40;;;;;;1721780;82;21430;-76
2023/03/28 05:50:02;;;;;;;25.12;21.75;;;34.80;62.50;;;;;;1754294;81;21302;-75
2023/03/28 05:52:33;;;;;;;27.00;21.93;;;34.70;62.20;;;;;;1792287;80;21186;-76
2023/03/28 05:55:05;;;;;;;25.08;22.37;;;34.70;62.30;;;;;;1794255;79;21166;-75
2023/03/28 05:57:36;;;;;;;24.60;21.95;;;34.70;62.30;;;;;;1781137;80;21537;-74
2023/03/28 06:00:12;;;;;;;23.83;21.52;;;34.70;62.50;;;;;;1784761;80;21246;-74
2023/03/28 06:02:44;;;;;;;24.60;21.57;;;34.70;62.30;;;;;;1784831;80;21145;-74
2023/03/28 06:05:15;;;;;;;27.70;21.73;;;34.80;62.10;;;;;;1784321;80;21209;-75
2023/03/28 06:07:47;;;;;;;23.35;20.85;;;34.80;61.90;;;;;;1783533;80;21142;-77
2023/03/28 06:10:18;;;;;;;26.50;21.62;;;34.80;62.30;;;;;;1788035;78;21475;-76
2023/03/28 06:12:50;;;;;;;25.25;21.02;;;34.90;62.20;;;;;;1778126;80;21231;-75
2023/03/28 06:15:21;;;;;;;25.62;20.43;;;35.10;62.10;;;;;;1783203;79;21433;-75
2023/03/28 06:17:53;;;;;;;24.35;21.27;;;35.20;61.10;;;;;;1791312;80;21267;-74
2023/03/28 06:20:24;;;;;;;23.25;20.43;;;35.30;60.50;;;;;;1795247;79;21654;-73
2023/03/28 06:22:56;;;;;;;24.40;20.55;;;35.40;60.60;;;;;;1784801;80;21156;-76
2023/03/28 06:25:27;;;;;;;26.30;21.00;;;35.40;60.60;;;;;;1784415;80;21145;-74
2023/03/28 06:27:59;;;;;;;29.05;22.05;;;35.40;60.20;;;;;;1781169;80;21138;-75
2023/03/28 06:30:30;;;;;;;24.47;20.55;;;;;;;;;;1780309;80;21230;-75
2023/03/28 06:33:01;;;;;;;23.62;20.10;;;35.50;59.50;;;;;;1772456;80;21191;-73
2023/03/28 06:35:33;;;;;;;23.52;20.40;;;35.60;60.60;;;;;;1779591;80;21432;-74
2023/03/28 06:38:05;;;;;;;23.50;20.70;;;35.60;59.80;;;;;;1781188;79;21243;-76
2023/03/28 06:40:43;;;;;;;23.05;20.65;;;35.60;59.50;;;;;;1796666;79;21131;-75
2023/03/28 06:43:14;;;;;;;23.67;21.17;;;35.70;59.40;;;;;;1796940;79;21201;-76
2023/03/28 06:45:46;;;;;;;23.65;21.12;;;35.70;58.90;;;;;;1780830;80;21216;-76
2023/03/28 06:48:17;;;;;;;24.05;20.75;;;35.70;58.60;;;;;;1784684;80;21205;-76
2023/03/28 06:50:53;;;;;;;24.00;21.40;;;35.60;58.90;;;;;;1784492;80;21214;-75
2023/03/28 06:53:21;;;;;;;22.67;20.20;;;35.50;59.20;;;;;;1780872;79;21698;-76
2023/03/28 06:55:53;;;;;;;24.82;19.98;;;35.40;59.50;;;;;;1783087;79;21703;-75
2023/03/28 06:58:25;;;;;;;26.97;20.10;;;35.40;59.80;;;;;;1781459;79;21210;-74
2023/03/28 07:00:57;;;;;;;24.27;19.98;;;35.40;59.40;;;;;;1780745;79;21173;-75
2023/03/28 07:03:29;;;;;;;24.67;20.05;;;35.50;58.60;;;;;;1774282;80;22020;-74
2023/03/28 07:06:05;;;;;;;24.37;19.90;;;35.50;58.20;;;;;;1775612;80;21151;-75
2023/03/28 07:08:37;;;;;;;32.15;21.17;;;35.60;58.50;;;;;;1765075;80;21153;-75
2023/03/28 07:11:09;;;;;;;28.80;20.75;;;35.60;59.00;;;;;;1788767;79;21212;-74
2023/03/28 07:13:40;;;;;;;28.62;20.02;;;35.50;59.00;;;;;;1776790;79;21715;-75
2023/03/28 07:16:15;;;;;;;25.37;20.27;;;35.50;59.10;;;;;;1789728;79;21138;-74
2023/03/28 07:18:47;;;;;;;24.03;19.57;;;35.50;59.10;;;;;;1786764;78;21292;-74
2023/03/28 07:21:19;;;;;;;25.23;19.25;;;34.40;58.60;;;;;;1785487;79;21581;-73
2023/03/28 07:23:50;;;;;;;23.00;19.25;;;35.60;58.90;;;;;;1774395;80;21198;-75
2023/03/28 07:26:21;;;;;;;21.45;19.25;;;35.60;58.90;;;;;;1779699;79;21186;-74
2023/03/28 07:28:55;;;;;;;26.27;21.10;;;35.60;58.50;;;;;;1785639;79;21200;-74
2023/03/28 07:31:26;;;;;;;23.30;19.15;;;35.60;58.70;;;;;;1781784;79;21538;-75
2023/03/28 07:33:58;;;;;;;25.65;20.72;;;35.60;58.40;;;;;;1759233;80;21209;-75
2023/03/28 07:36:30;;;;;;;23.45;19.48;;;35.70;58.40;;;;;;1784368;80;21158;-74
2023/03/28 07:39:01;;;;;;;25.97;19.40;;;35.60;58.40;;;;;;1790866;79;22066;-73
2023/03/28 07:41:32;;;;;;;23.57;19.45;;;35.70;58.70;;;;;;1779571;79;21174;-74
2023/03/28 07:44:04;;;;;;;22.05;19.25;;;35.60;58.30;;;;;;1745416;80;22044;-75
2023/03/28 07:46:36;;;;;;;20.43;18.05;;;35.60;57.90;;;;;;1788146;79;22007;-73
2023/03/28 07:49:07;;;;;;;21.20;18.80;;;35.50;58.30;;;;;;1787390;79;21441;-73
2023/03/28 07:51:39;;;;;;;23.67;19.02;;;35.50;58.50;;;;;;1775588;79;21126;-73
2023/03/28 07:54:16;;;;;;;22.25;19.32;;;35.50;58.40;;;;;;1781403;80;21489;-76
2023/03/28 07:56:44;;;;;;;21.55;19.25;;;35.50;58.60;;;;;;1779669;79;21186;-72
2023/03/28 07:59:16;;;;;;;26.45;18.80;;;35.40;58.50;;;;;;1788930;79;21404;-72
2023/03/28 08:01:47;;;;;;;31.05;19.12;;;35.50;58.90;;;;;;1786047;78;21265;-72
2023/03/28 08:04:18;;;;;;;28.52;21.23;;;35.60;58.80;;;;;;1783933;79;21931;-73
2023/03/28 08:06:51;;;;;;;22.42;20.00;;;35.60;58.70;;;;;;1779003;79;21193;-72
2023/03/28 08:09:22;;;;;;;23.62;20.12;;;35.60;58.60;;;;;;1781517;79;21210;-72
2023/03/28 08:11:53;;;;;;;21.87;19.45;;;35.50;58.60;;;;;;1787231;77;21154;-73
2023/03/28 08:14:24;;;;;;;22.87;20.37;;;35.40;58.90;;;;;;1791284;79;21171;-74
2023/03/28 08:16:56;;;;;;;23.80;18.92;;;35.40;59.00;;;;;;1795480;78;21162;-75
2023/03/28 08:19:27;;;;;;;21.87;19.05;;;35.40;59.10;;;;;;1799553;78;21150;-74
2023/03/28 08:22:01;;;;;;;25.62;19.25;;;35.40;59.40;;;;;;1791848;79;21121;-73
2023/03/28 08:24:51;;;;;;;25.72;18.50;;;35.30;59.40;;;;;;1787593;79;21252;-73
2023/03/28 08:27:23;;;;;;;29.75;18.37;;;35.30;59.50;;;;;;1894541;74;21153;-72
2023/03/28 08:29:54;;;;;;;24.85;18.20;;;35.30;59.80;;;;;;1888030;75;21381;-73
2023/03/28 08:32:26;;;;;;;31.07;19.55;;;35.30;59.80;;;;;;1907969;74;21257;-72
2023/03/28 08:35:01;;;;;;;25.12;18.75;;;35.30;59.00;;;;;;1891810;73;21300;-72
2023/03/28 08:37:30;;;;;;;25.20;19.82;;;35.30;59.20;;;;;;1831442;76;21141;-72
2023/03/28 08:40:05;;;;;;;20.08;17.42;;;35.20;59.00;;;;;;1900578;74;21159;-72
2023/03/28 08:42:52;;;;;;;21.68;19.42;;;35.20;59.20;;;;;;1924623;74;21427;-73
2023/03/28 08:45:34;;;;;;;22.02;18.65;;;35.10;60.10;;;;;;1902217;74;21222;-73
2023/03/28 08:48:26;;;;;;;21.48;18.98;;;35.00;59.60;;;;;;1906429;74;21164;-74
2023/03/28 08:51:15;;;;;;;22.00;18.67;;;34.90;59.70;;;;;;1905542;74;21422;-72
2023/03/28 08:53:49;;;;;;;25.02;19.00;;;34.90;59.70;;;;;;1898041;74;21175;-73
2023/03/28 08:56:20;;;;;;;27.82;19.27;;;34.80;59.70;;;;;;1911646;74;21084;-72
2023/03/28 08:58:57;;;;;;;21.73;18.12;;;34.70;59.60;;;;;;1894696;75;21171;-73
2023/03/28 09:01:28;;;;;;;;;;;34.70;60.10;;;;;;1911504;75;21181;-74
2023/03/28 09:04:00;;;;;;;22.98;19.67;;;34.60;60.10;;;;;;1911091;74;20368;-72
2023/03/28 09:06:38;;;;;;;24.20;19.62;;;34.50;60.40;;;;;;1905079;74;21199;-72
2023/03/28 09:09:20;;;;;;;25.82;18.87;;;34.50;60.80;;;;;;1922383;73;21150;-74
2023/03/28 09:12:27;;;;;;;24.00;18.70;;;34.50;61.10;;;;;;1898254;74;21138;-74
2023/03/28 09:15:19;;;;;;;20.95;18.35;;;34.40;61.00;;;;;;1860364;76;21535;-74
2023/03/28 09:18:04;;;;;;;19.12;17.15;;;34.40;61.00;;;;;;1843705;77;21254;-74
2023/03/28 09:20:38;;;;;;;25.37;18.60;;;34.40;61.40;;;;;;1878369;75;21137;-74
2023/03/28 09:23:21;;;;;;;21.48;17.65;;;34.30;61.50;;;;;;1835805;77;21124;-73
2023/03/28 09:26:04;;;;;;;22.90;19.07;;;34.30;61.50;;;;;;1832225;76;21164;-73
2023/03/28 09:28:56;;;;;;;22.02;17.82;;;34.30;61.60;;;;;;1841254;77;21430;-74
2023/03/28 09:31:39;;;;;;;20.97;17.42;;;34.30;61.60;;;;;;1851418;77;21210;-73
2023/03/28 09:34:26;;;;;;;22.58;17.52;;;34.30;61.70;;;;;;1799200;78;21978;-75
2023/03/28 09:37:00;;;;;;;20.57;17.30;;;34.30;61.80;;;;;;1848820;76;21189;-75
2023/03/28 09:39:42;;;;;;;23.07;18.12;;;34.20;61.90;;;;;;1849483;76;21195;-74
2023/03/28 09:42:19;;;;;;;20.68;18.48;;;34.30;62.00;;;;;;1845119;76;21231;-73
2023/03/28 09:44:53;;;;;;;;;;;34.30;62.20;;;;;;1834310;77;21183;-73
2023/03/28 09:47:27;;;;;;;26.77;18.77;;;34.30;61.90;;;;;;1840606;76;20647;-74
2023/03/28 09:49:59;;;;;;;29.55;18.85;;;34.20;61.80;;;;;;1833908;77;21149;-74
2023/03/28 09:52:32;;;;;;;34.92;19.05;;;34.30;61.90;;;;;;1846679;76;21209;-75
2023/03/28 09:55:04;;;;;;;38.08;20.43;;;34.20;61.80;;;;;;1860238;76;21236;-74
2023/03/28 09:58:00;;;;;;;24.10;19.35;;;34.20;61.90;;;;;;1833345;77;21525;-75
2023/03/28 10:00:36;;;;;;;27.60;20.32;;;34.30;62.00;;;;;;1802724;77;21594;-75
2023/03/28 10:03:09;;;;;;;;;;;34.20;61.90;;;;;;1855321;77;21099;-76
2023/03/28 10:05:42;;;;;;;34.13;23.38;;;34.20;61.80;;;;;;1843938;76;20198;-75
2023/03/28 10:08:24;;;;;;;26.20;22.13;;;34.20;62.10;;;;;;1829769;77;21205;-76
2023/03/28 10:11:05;;;;;;;24.92;20.90;;;34.30;62.00;;;;;;1807622;77;21240;-75
2023/03/28 10:13:41;;;;;;;26.97;19.15;;;34.30;61.70;;;;;;1828564;77;21161;-75
2023/03/28 10:16:13;;;;;;;;;;;34.20;61.60;;;;;;1837759;77;21206;-74
2023/03/28 10:18:44;;;;;;;28.55;22.10;;;34.20;61.80;;;;;;1840866;76;20168;-74
2023/03/28 10:21:18;;;;;;;24.92;19.87;;;34.30;61.50;;;;;;1850759;76;21136;-75
2023/03/28 10:24:00;;;;;;;21.95;18.87;;;34.20;60.90;;;;;;1860430;76;21164;-75
2023/03/28 10:26:32;;;;;;;24.70;18.48;;;34.00;61.70;;;;;;1841082;76;21261;-74
2023/03/28 10:29:07;;;;;;;22.70;18.77;;;33.80;61.90;;;;;;1901107;74;21144;-75
2023/03/28 10:31:40;;;;;;;29.63;20.05;;;33.60;62.10;;;;;;1898093;74;21550;-75
2023/03/28 10:34:14;;;;;;;22.02;18.57;;;33.50;62.70;;;;;;1932231;74;21107;-73
2023/03/28 10:36:46;;;;;;;30.75;22.07;;;33.40;62.80;;;;;;1900892;73;21160;-75
2023/03/28 10:39:32;;;;;;;26.07;19.27;;;33.40;63.30;;;;;;1898396;74;21214;-74
2023/03/28 10:42:04;;;;;;;25.13;18.07;;;33.40;63.10;;;;;;1912391;74;21129;-73
2023/03/28 10:44:36;;;;;;;24.20;18.12;;;33.40;63.30;;;;;;1909677;74;21177;-74
2023/03/28 10:47:10;;;;;;;25.80;19.10;;;33.30;63.70;;;;;;1906782;74;21164;-73
2023/03/28 10:49:53;;;;;;;26.70;19.07;;;33.30;63.70;;;;;;1923388;74;21315;-75
2023/03/28 10:52:36;;;;;;;27.58;21.20;;;33.30;63.50;;;;;;1908647;73;21547;-75
2023/03/28 10:55:29;;;;;;;24.98;19.52;;;33.20;63.60;;;;;;1896200;74;21214;-73
2023/03/28 10:58:12;;;;;;;21.95;19.23;;;33.20;63.80;;;;;;1919729;73;21540;-74
2023/03/28 11:01:03;;;;;;;26.37;19.40;;;33.10;63.90;;;;;;1905743;74;21108;-75
2023/03/28 11:03:55;;;;;;;23.07;19.60;;;33.10;64.50;;;;;;1918396;74;21210;-74
2023/03/28 11:06:38;;;;;;;25.02;18.75;;;33.10;64.70;;;;;;1911452;74;21159;-74
2023/03/28 11:09:14;;;;;;;25.72;19.95;;;33.00;64.60;;;;;;1887601;74;21189;-75
2023/03/28 11:12:09;;;;;;;37.55;21.30;;;33.10;64.60;;;;;;1903774;74;21202;-74
2023/03/28 11:14:50;;;;;;;30.30;20.65;;;33.10;64.60;;;;;;1883580;74;21117;-75
2023/03/28 11:17:23;;;;;;;24.87;20.32;;;33.10;64.60;;;;;;1915379;74;21169;-75
2023/03/28 11:20:30;;;;;;;30.35;21.02;;;33.10;64.50;;;;;;1903364;74;21111;-75
2023/03/28 11:23:16;;;;;;;28.02;21.00;;;33.10;64.50;;;;;;1900286;74;21136;-75
2023/03/28 11:26:16;;;;;;;28.03;20.30;;;33.10;64.90;;;;;;1886318;74;21153;-75
2023/03/28 11:28:59;;;;;;;25.15;19.35;;;33.10;65.00;;;;;;1865614;75;21709;-75
2023/03/28 11:31:38;;;;;;;26.93;20.52;;;33.10;64.80;;;;;;1872868;75;21107;-75
2023/03/28 11:34:27;;;;;;;26.93;20.40;;;33.10;65.00;;;;;;1876447;74;21121;-75
2023/03/28 11:37:19;;;;;;;28.70;21.20;;;33.00;64.80;;;;;;1881141;74;21203;-75
2023/03/28 11:39:55;;;;;;;31.20;22.73;;;33.10;65.00;;;;;;1835273;76;21443;-74
2023/03/28 11:42:37;;;;;;;36.80;24.25;;;33.00;64.70;;;;;;1870043;74;21593;-75
2023/03/28 11:45:14;;;;;;;33.73;23.30;;;33.10;64.80;;;;;;1852683;74;21125;-75
2023/03/28 11:47:48;;;;;;;;;;;33.10;64.90;;;;;;1875032;75;21895;-73
2023/03/28 11:50:28;;;;;;;37.73;24.02;;;33.10;64.50;;;;;;1868532;74;20219;-75
2023/03/28 11:53:11;;;;;;;32.33;22.77;;;33.10;64.90;;;;;;1864040;75;21187;-74
2023/03/28 11:55:50;;;;;;;36.50;21.95;;;33.10;64.60;;;;;;1853415;75;21155;-75
2023/03/28 11:58:27;;;;;;;29.87;21.45;;;33.10;64.60;;;;;;1838718;75;21210;-76
2023/03/28 12:01:10;;;;;;;34.05;21.40;;;33.20;64.70;;;;;;1866167;75;21141;-75
2023/03/28 12:03:53;;;;;;;34.53;24.07;;;33.20;64.50;;;;;;1853224;75;21418;-74
2023/03/28 12:06:38;;;;;;;31.87;24.43;;;33.20;64.40;;;;;;1839623;75;21138;-74
2023/03/28 12:09:26;;;;;;;28.42;24.15;;;33.20;64.40;;;;;;1834767;77;21153;-76
2023/03/28 12:12:02;;;;;;;30.08;25.30;;;33.20;64.50;;;;;;1853989;75;21630;-76
2023/03/28 12:14:36;;;;;;;34.25;25.97;;;33.30;64.60;;;;;;1859025;75;21087;-76
2023/03/28 12:17:25;;;;;;;33.85;26.25;;;33.30;64.70;;;;;;1854896;75;21888;-76
2023/03/28 12:19:57;;;;;;;32.60;26.55;;;33.20;65.10;;;;;;1857722;74;21117;-76
2023/03/28 12:22:31;;;;;;;35.68;27.30;;;33.20;65.00;;;;;;1865464;75;21817;-75
2023/03/28 12:25:14;;;;;;;36.00;27.22;;;33.30;65.10;;;;;;1874730;74;21115;-76
2023/03/28 12:28:02;;;;;;;31.17;26.68;;;33.30;65.70;;;;;;1806413;74;21174;-76
2023/03/28 12:30:36;;;;;;;31.35;24.60;;;33.30;66.10;;;;;;1868695;73;21199;-75
2023/03/28 12:33:42;;;;;;;33.20;26.60;;;33.20;66.20;;;;;;1875835;74;21844;-74
2023/03/28 12:36:23;;;;;;;31.70;25.25;;;33.20;66.50;;;;;;1896663;74;21402;-75
2023/03/28 12:39:02;;;;;;;34.85;22.73;;;33.20;66.40;;;;;;1895304;74;21115;-76
2023/03/28 12:41:36;;;;;;;31.23;23.52;;;33.30;66.70;;;;;;1911095;74;21205;-75
2023/03/28 12:44:21;;;;;;;37.25;24.75;;;33.20;67.00;;;;;;1897837;74;21205;-74
2023/03/28 12:46:57;;;;;;;32.73;24.57;;;33.20;67.40;;;;;;1880021;74;21140;-74
2023/03/28 12:49:34;;;;;;;;;;;33.20;67.70;;;;;;1914766;74;21678;-74
2023/03/28 12:52:10;;;;;;;29.98;24.20;;;33.20;67.40;;;;;;1892639;74;20225;-75
2023/03/28 12:54:59;;;;;;;32.30;22.82;;;33.20;68.60;;;;;;1913502;74;21175;-73
2023/03/28 12:57:45;;;;;;;32.67;22.65;;;33.20;68.80;;;;;;1896033;74;21187;-75
2023/03/28 13:00:17;;;;;;;;;;;33.10;69.10;;;;;;1910964;74;21198;-74
2023/03/28 13:02:51;;;;;;;32.48;24.00;;;33.10;69.10;;;;;;1892500;74;20216;-76
2023/03/28 13:05:40;;;;;;;35.68;24.07;;;33.10;69.20;;;;;;1911251;74;21117;-74
2023/03/28 13:08:16;;;;;;;28.95;23.52;;;33.10;69.40;;;;;;1886683;74;21109;-76
2023/03/28 13:11:11;;;;;;;27.13;23.65;;;33.10;69.80;;;;;;1888813;74;21149;-75
2023/03/28 13:13:45;;;;;;;33.30;24.53;;;33.10;69.70;;;;;;1846624;74;21263;-75
2023/03/28 13:16:25;;;;;;;28.80;23.20;;;33.10;70.00;;;;;;1912831;74;21104;-75
2023/03/28 13:19:08;;;;;;;36.73;24.98;;;33.00;70.00;;;;;;1884266;74;21137;-79